createdAt,value
2022-08-08T00:00:55.558Z,16.60
2022-08-08T00:03:13.211Z,16.50
2022-08-08T00:06:28.549Z,16.30
2022-08-08T00:09:15.892Z,16.40
2022-08-08T00:12:07.537Z,16.30
2022-08-08T00:15:04.895Z,16.20
2022-08-08T00:18:03.320Z,16.10
2022-08-08T00:20:53.816Z,16.10
2022-08-08T00:23:54.275Z,16.00
2022-08-08T00:26:38.681Z,16.00
2022-08-08T00:29:15.091Z,16.00
2022-08-08T00:32:28.132Z,15.90
2022-08-08T00:35:18.789Z,15.90
2022-08-08T00:38:16.968Z,15.90
2022-08-08T00:41:16.939Z,15.80
2022-08-08T00:44:17.257Z,15.80
2022-08-08T00:47:23.074Z,15.80
2022-08-08T00:50:48.217Z,15.70
2022-08-08T00:53:43.523Z,15.70
2022-08-08T00:57:02.305Z,15.70
2022-08-08T00:59:56.427Z,15.70
2022-08-08T01:03:59.002Z,15.50
2022-08-08T01:06:27.279Z,15.50
2022-08-08T01:09:35.669Z,15.50
2022-08-08T01:12:25.633Z,15.50
2022-08-08T01:15:44.540Z,15.50
2022-08-08T01:18:52.472Z,15.50
2022-08-08T01:22:10.308Z,15.50
2022-08-08T01:24:53.645Z,15.50
2022-08-08T01:28:00.190Z,15.50
2022-08-08T01:31:00.107Z,15.40
2022-08-08T01:34:01.238Z,15.50
2022-08-08T01:36:50.721Z,15.50
2022-08-08T01:39:41.894Z,15.50
2022-08-08T01:42:36.637Z,15.60
2022-08-08T01:45:56.131Z,15.60
2022-08-08T01:49:03.807Z,15.60
2022-08-08T01:52:32.578Z,15.70
2022-08-08T01:55:45.986Z,15.70
2022-08-08T01:58:13.198Z,15.70
2022-08-08T02:01:01.406Z,15.60
2022-08-08T02:03:54.450Z,15.50
2022-08-08T02:06:43.383Z,15.40
2022-08-08T02:10:02.660Z,15.40
2022-08-08T02:12:48.226Z,15.30
2022-08-08T02:15:34.864Z,15.20
2022-08-08T02:18:38.938Z,15.10
2022-08-08T02:22:14.091Z,15.10
2022-08-08T02:24:52.426Z,15.00
2022-08-08T02:27:26.547Z,14.90
2022-08-08T02:30:20.796Z,14.90
2022-08-08T02:33:15.058Z,14.90
2022-08-08T02:36:04.525Z,14.90
2022-08-08T02:39:41.231Z,14.90
2022-08-08T02:42:38.141Z,14.90
2022-08-08T02:45:26.344Z,14.80
2022-08-08T02:48:11.634Z,14.80
2022-08-08T02:51:00.221Z,14.70
2022-08-08T02:53:57.845Z,14.70
2022-08-08T02:56:41.762Z,14.60
2022-08-08T02:59:58.039Z,14.50
2022-08-08T03:02:29.053Z,14.50
2022-08-08T03:05:44.812Z,14.50
2022-08-08T03:08:34.857Z,14.50
2022-08-08T03:12:01.511Z,14.50
2022-08-08T03:16:02.085Z,14.50
2022-08-08T03:18:06.830Z,14.50
2022-08-08T03:20:52.054Z,14.40
2022-08-08T03:23:20.344Z,14.40
2022-08-08T03:25:50.372Z,14.40
2022-08-08T03:28:41.273Z,14.30
2022-08-08T03:31:26.715Z,14.30
2022-08-08T03:34:00.737Z,14.30
2022-08-08T03:36:30.676Z,14.30
2022-08-08T03:39:14.791Z,14.20
2022-08-08T03:42:28.778Z,14.20
2022-08-08T03:44:34.888Z,14.20
2022-08-08T03:47:14.010Z,14.30
2022-08-08T03:50:01.125Z,14.20
2022-08-08T03:52:31.371Z,14.20
2022-08-08T03:55:10.428Z,14.20
2022-08-08T03:58:31.567Z,14.10
2022-08-08T04:00:27.426Z,14.10
2022-08-08T04:02:59.274Z,14.20
2022-08-08T04:05:39.946Z,14.10
2022-08-08T04:08:33.860Z,14.10
2022-08-08T04:11:10.976Z,14.00
2022-08-08T04:14:03.387Z,14.10
2022-08-08T04:16:38.792Z,14.10
2022-08-08T04:19:24.038Z,14.10
2022-08-08T04:21:52.396Z,14.10
2022-08-08T04:24:29.473Z,14.10
2022-08-08T04:26:59.320Z,14.10
2022-08-08T04:29:27.448Z,14.10
2022-08-08T04:32:00.597Z,14.10
2022-08-08T04:34:31.852Z,14.10
2022-08-08T04:37:06.081Z,14.10
2022-08-08T04:40:04.390Z,14.20
2022-08-08T04:42:20.364Z,14.20
2022-08-08T04:44:47.480Z,14.30
2022-08-08T04:47:15.035Z,14.30
2022-08-08T04:49:58.548Z,14.20
2022-08-08T04:52:33.853Z,14.20
2022-08-08T04:55:02.318Z,14.30
2022-08-08T04:57:31.111Z,14.40
2022-08-08T04:59:59.712Z,14.40
2022-08-08T05:02:28.611Z,14.40
2022-08-08T05:04:59.411Z,14.40
2022-08-08T05:07:37.768Z,14.50
2022-08-08T05:10:12.832Z,14.50
2022-08-08T05:12:53.486Z,14.50
2022-08-08T05:16:48.304Z,14.50
2022-08-08T05:18:13.938Z,14.60
2022-08-08T05:20:50.509Z,14.50
2022-08-08T05:23:20.469Z,14.50
2022-08-08T05:25:48.833Z,14.60
2022-08-08T05:28:16.597Z,14.80
2022-08-08T05:31:19.478Z,14.90
2022-08-08T05:33:50.110Z,15.00
2022-08-08T05:36:25.143Z,15.10
2022-08-08T05:38:53.458Z,15.30
2022-08-08T05:41:25.822Z,15.40
2022-08-08T05:44:04.892Z,15.50
2022-08-08T05:46:33.082Z,15.80
2022-08-08T05:49:00.654Z,15.90
2022-08-08T05:51:48.611Z,16.10
2022-08-08T05:54:27.363Z,16.30
2022-08-08T05:57:04.653Z,16.40
2022-08-08T05:59:59.217Z,16.50
2022-08-08T06:02:48.173Z,16.60
2022-08-08T06:05:33.499Z,16.80
2022-08-08T06:08:10.373Z,16.90
2022-08-08T06:10:51.800Z,17.10
2022-08-08T06:13:22.598Z,17.10
2022-08-08T06:15:53.648Z,17.30
2022-08-08T06:18:23.797Z,17.40
2022-08-08T06:20:57.207Z,17.40
2022-08-08T06:23:48.500Z,17.50
2022-08-08T06:26:42.837Z,17.70
2022-08-08T06:29:26.623Z,17.80
2022-08-08T09:58:20.240Z,18.00
2022-08-08T10:00:57.590Z,22.80
2022-08-08T10:03:28.354Z,22.40
2022-08-08T10:05:58.674Z,22.40
2022-08-08T10:08:29.166Z,22.40
2022-08-08T10:11:01.533Z,22.60
2022-08-08T10:13:42.171Z,22.80
2022-08-08T10:16:09.747Z,22.90
2022-08-08T10:18:37.104Z,23.00
2022-08-08T10:21:24.800Z,23.10
2022-08-08T10:23:58.262Z,23.20
2022-08-08T10:26:56.626Z,23.20
2022-08-08T10:29:24.843Z,23.30
2022-08-08T10:32:15.432Z,23.40
2022-08-08T10:35:00.338Z,23.50
2022-08-08T10:37:31.741Z,23.60
2022-08-08T10:40:16.136Z,23.60
2022-08-08T10:42:45.140Z,23.70
2022-08-08T10:45:16.080Z,23.90
2022-08-08T10:47:48.514Z,24.00
2022-08-08T10:50:30.733Z,24.00
2022-08-08T10:53:07.760Z,24.00
2022-08-08T10:55:46.661Z,24.10
2022-08-08T10:58:15.588Z,23.80
2022-08-08T11:00:52.470Z,23.90
2022-08-08T11:03:37.117Z,24.00
2022-08-08T11:06:16.045Z,24.10
2022-08-08T11:08:53.250Z,24.30
2022-08-08T11:11:32.559Z,24.40
2022-08-08T11:14:08.549Z,24.60
2022-08-08T11:16:46.636Z,25.00
2022-08-08T11:19:15.318Z,25.30
2022-08-08T11:21:54.290Z,25.30
2022-08-08T11:24:27.178Z,25.40
2022-08-08T11:27:01.165Z,25.00
2022-08-08T11:29:50.918Z,24.50
2022-08-08T11:32:22.165Z,24.30
2022-08-08T11:35:24.983Z,24.40
2022-08-08T11:38:36.710Z,24.40
2022-08-08T11:40:52.714Z,24.30
2022-08-08T11:43:24.438Z,24.40
2022-08-08T11:46:13.346Z,24.30
2022-08-08T11:48:39.792Z,24.10
2022-08-08T11:51:39.177Z,24.20
2022-08-08T11:53:55.313Z,24.50
2022-08-08T11:56:31.467Z,24.60
2022-08-08T11:59:09.822Z,24.70
2022-08-08T12:01:37.087Z,24.70
2022-08-08T12:04:06.906Z,25.00
2022-08-08T12:06:33.866Z,25.20
2022-08-08T12:09:08.501Z,25.40
2022-08-08T12:11:45.871Z,25.70
2022-08-08T12:14:23.908Z,25.90
2022-08-08T12:16:57.006Z,26.00
2022-08-08T12:19:37.385Z,26.10
2022-08-08T12:22:12.976Z,26.20
2022-08-08T12:24:48.435Z,26.20
2022-08-08T12:27:20.992Z,26.20
2022-08-08T12:32:25.863Z,26.30
2022-08-08T12:35:13.215Z,26.30
2022-08-08T12:38:01.349Z,25.90
2022-08-08T12:40:56.676Z,26.00
2022-08-08T12:43:32.977Z,26.20
2022-08-08T12:46:29.200Z,26.40
2022-08-08T12:51:58.394Z,26.50
2022-08-08T12:54:33.120Z,26.40
2022-08-08T12:57:18.740Z,26.50
2022-08-08T13:00:05.953Z,26.60
2022-08-08T13:02:42.129Z,26.40
2022-08-08T13:05:26.766Z,26.20
2022-08-08T13:08:18.181Z,25.90
2022-08-08T13:11:04.208Z,26.00
2022-08-08T13:13:35.366Z,26.30
2022-08-08T13:16:21.087Z,26.30
2022-08-08T13:18:57.024Z,26.40
2022-08-08T13:21:36.319Z,26.50
2022-08-08T13:24:18.263Z,26.60
2022-08-08T13:26:45.818Z,26.70
2022-08-08T13:42:09.229Z,26.80
2022-08-08T13:44:38.838Z,26.90
2022-08-08T13:47:17.766Z,26.70
2022-08-08T13:50:36.644Z,26.60
2022-08-08T13:52:37.958Z,26.70
2022-08-08T13:55:05.898Z,27.10
2022-08-08T14:32:09.429Z,27.30
2022-08-08T14:34:42.881Z,30.00
2022-08-08T14:37:12.689Z,30.30
2022-08-08T14:39:49.467Z,31.00
2022-08-08T14:42:37.249Z,31.80
2022-08-08T14:45:29.174Z,32.40
2022-08-08T14:50:38.954Z,32.70
2022-08-08T14:53:09.967Z,33.50
2022-08-08T15:00:48.287Z,33.40
2022-08-08T15:03:17.351Z,34.20
2022-08-08T15:05:53.175Z,33.40
2022-08-08T15:08:34.273Z,33.50
2022-08-08T15:11:10.903Z,33.70
2022-08-08T15:14:01.777Z,33.70
2022-08-08T15:26:21.443Z,34.00
2022-08-08T15:28:53.936Z,33.80
2022-08-08T15:31:55.633Z,33.80
2022-08-08T15:34:29.731Z,33.70
2022-08-08T15:36:56.740Z,32.90
2022-08-08T15:39:23.484Z,31.90
2022-08-08T15:41:52.634Z,31.20
2022-08-08T15:44:21.123Z,31.40
2022-08-08T15:46:50.645Z,32.00
2022-08-08T15:49:20.401Z,32.50
2022-08-08T15:51:49.890Z,32.70
2022-08-08T15:54:18.865Z,33.10
2022-08-08T15:57:04.492Z,33.00
2022-08-08T16:00:05.219Z,33.30
2022-08-08T16:02:21.793Z,32.10
2022-08-08T16:04:58.667Z,30.80
2022-08-08T16:07:39.199Z,29.70
2022-08-08T16:13:15.665Z,29.60
2022-08-08T16:13:34.000Z,29.90
2022-08-08T16:15:59.166Z,30.40
2022-08-08T16:18:30.518Z,30.80
2022-08-08T16:21:00.629Z,31.20
2022-08-08T16:23:32.241Z,31.20
2022-08-08T16:26:04.309Z,31.30
2022-08-08T16:28:36.330Z,31.30
2022-08-08T16:31:07.523Z,31.60
2022-08-08T16:33:38.489Z,31.40
2022-08-08T16:36:08.885Z,31.60
2022-08-08T16:38:40.719Z,31.80
2022-08-08T16:41:20.217Z,31.70
2022-08-08T16:43:51.047Z,31.40
2022-08-08T16:46:36.386Z,31.30
2022-08-08T16:49:08.046Z,31.00
2022-08-08T16:55:02.516Z,30.70
2022-08-08T16:55:04.482Z,30.90
2022-08-08T16:57:43.534Z,30.60
2022-08-08T17:00:08.924Z,30.40
2022-08-08T17:02:44.299Z,30.40
2022-08-08T17:05:12.981Z,30.60
2022-08-08T17:07:42.020Z,30.50
2022-08-08T17:10:19.061Z,30.40
2022-08-08T17:12:53.231Z,30.30
2022-08-08T17:15:22.933Z,30.30
2022-08-08T17:18:02.420Z,30.30
2022-08-08T17:20:32.563Z,30.60
2022-08-08T17:23:17.856Z,30.50
2022-08-08T17:25:52.377Z,30.30
2022-08-08T17:28:35.382Z,30.00
2022-08-08T17:31:45.848Z,29.90
2022-08-08T17:34:35.763Z,29.70
2022-08-08T17:36:55.055Z,29.70
2022-08-08T17:40:04.266Z,29.90
2022-08-08T17:42:17.887Z,29.50
2022-08-08T17:44:45.494Z,29.40
2022-08-08T17:47:23.213Z,29.20
2022-08-08T17:49:52.941Z,29.10
2022-08-08T17:52:24.623Z,29.00
2022-08-08T17:54:56.105Z,29.00
2022-08-08T17:57:23.920Z,28.80
2022-08-08T17:59:51.806Z,28.30
2022-08-08T18:02:28.652Z,27.70
2022-08-08T18:04:58.432Z,27.20
2022-08-08T18:07:26.769Z,26.80
2022-08-08T18:10:14.561Z,26.40
2022-08-08T18:12:42.762Z,26.00
2022-08-08T18:15:12.316Z,25.70
2022-08-08T18:18:09.748Z,25.40
2022-08-08T18:20:44.115Z,25.10
2022-08-08T18:23:15.216Z,24.80
2022-08-08T18:25:42.993Z,24.50
2022-08-08T18:28:13.197Z,24.30
2022-08-08T18:30:41.683Z,24.10
2022-08-08T18:33:36.739Z,24.00
2022-08-08T18:36:02.969Z,23.80
2022-08-08T18:38:31.168Z,23.60
2022-08-08T18:40:59.316Z,23.50
2022-08-08T18:43:42.719Z,23.40
2022-08-08T18:46:56.929Z,23.20
2022-08-08T18:48:57.516Z,23.00
2022-08-08T18:51:53.734Z,22.90
2022-08-08T18:54:22.347Z,22.80
2022-08-08T18:56:51.313Z,22.60
2022-08-08T18:59:18.015Z,22.60
2022-08-08T19:02:25.505Z,22.50
2022-08-08T19:04:31.962Z,22.30
2022-08-08T19:07:02.609Z,22.30
2022-08-08T19:09:49.476Z,22.10
2022-08-08T19:12:16.709Z,22.00
2022-08-08T19:14:43.901Z,21.90
2022-08-08T19:17:11.654Z,21.90
2022-08-08T19:20:02.570Z,21.80
2022-08-08T19:22:29.899Z,21.70
2022-08-08T19:26:01.008Z,21.60
2022-08-08T19:27:56.568Z,21.60
2022-08-08T19:30:26.331Z,21.50
2022-08-08T19:32:54.222Z,21.40
2022-08-08T19:35:44.227Z,21.30
2022-08-08T19:38:12.832Z,21.20
2022-08-08T19:40:44.255Z,21.10
2022-08-08T19:43:11.917Z,21.10
2022-08-08T19:45:58.742Z,21.00
2022-08-08T19:48:30.536Z,21.00
2022-08-08T19:51:00.779Z,20.90
2022-08-08T19:53:53.213Z,20.90
2022-08-08T19:56:16.135Z,20.80
2022-08-08T19:58:51.738Z,20.80
2022-08-08T20:01:22.703Z,20.70
2022-08-08T20:04:01.910Z,20.60
2022-08-08T20:06:29.997Z,20.60
2022-08-08T20:08:56.938Z,20.60
2022-08-08T20:11:24.475Z,20.50
2022-08-08T20:14:13.036Z,20.40
2022-08-08T20:16:40.560Z,20.50
2022-08-08T20:19:10.686Z,20.50
2022-08-08T20:21:38.441Z,20.40
2022-08-08T20:24:07.671Z,20.50
2022-08-08T20:26:35.771Z,20.50
2022-08-08T20:29:06.452Z,20.60
2022-08-08T20:32:08.136Z,20.60
2022-08-08T20:34:31.160Z,20.60
2022-08-08T20:37:00.100Z,20.60
2022-08-08T20:39:39.412Z,20.70
2022-08-08T20:42:13.743Z,20.60
2022-08-08T20:44:40.398Z,20.50
2022-08-08T20:47:15.879Z,20.50
2022-08-08T20:49:51.009Z,20.50
2022-08-08T20:52:24.162Z,20.40
2022-08-08T20:54:50.825Z,20.40
2022-08-08T20:57:20.952Z,20.30
2022-08-08T20:59:48.512Z,20.30
2022-08-08T21:02:19.686Z,20.30
2022-08-08T21:05:00.788Z,20.20
2022-08-08T21:07:47.009Z,20.10
2022-08-08T21:10:15.402Z,20.10
2022-08-08T21:12:45.948Z,20.00
2022-08-08T21:15:16.199Z,20.00
2022-08-08T21:18:00.798Z,19.90
2022-08-08T21:20:34.598Z,19.90
2022-08-08T21:23:08.912Z,19.80
2022-08-08T21:25:36.730Z,19.80
2022-08-08T21:28:14.941Z,19.70
2022-08-08T21:30:49.539Z,19.70
2022-08-08T21:33:18.640Z,19.60
2022-08-08T21:36:16.630Z,19.50
2022-08-08T21:38:32.585Z,19.50
2022-08-08T21:40:59.286Z,19.50
2022-08-08T21:43:34.388Z,19.40
2022-08-08T21:48:07.863Z,19.40
2022-08-08T21:48:57.035Z,19.30
2022-08-08T21:54:34.544Z,19.30
2022-08-08T21:54:51.683Z,19.30
2022-08-08T21:57:03.901Z,19.20
2022-08-08T22:00:02.039Z,19.20
2022-08-08T22:02:19.552Z,19.20
2022-08-08T22:04:51.564Z,19.10
2022-08-08T22:07:18.949Z,19.10
2022-08-08T22:09:45.868Z,19.00
2022-08-08T22:12:14.948Z,19.00
2022-08-08T22:14:47.301Z,19.00
2022-08-08T22:17:18.122Z,18.90
2022-08-08T22:20:12.596Z,18.90
2022-08-08T22:22:38.123Z,18.90
2022-08-08T22:25:19.890Z,18.90
2022-08-08T22:28:02.667Z,18.80
2022-08-08T22:30:31.627Z,18.80
2022-08-08T22:32:58.378Z,18.70
2022-08-08T22:35:27.431Z,18.70
2022-08-08T22:38:14.642Z,18.60
2022-08-08T22:40:44.982Z,18.60
2022-08-08T22:43:15.577Z,18.60
2022-08-08T22:45:43.796Z,18.60
2022-08-08T22:48:13.852Z,18.50
2022-08-08T22:50:40.632Z,18.50
2022-08-08T22:54:29.281Z,18.40
2022-08-08T22:55:57.745Z,18.40
2022-08-08T22:58:28.736Z,18.30
2022-08-08T23:00:59.686Z,18.30
2022-08-08T23:03:34.428Z,18.30
2022-08-08T23:06:14.415Z,18.20
2022-08-08T23:08:44.383Z,18.20
2022-08-08T23:11:22.135Z,18.20
2022-08-08T23:13:53.885Z,18.10
2022-08-08T23:16:38.280Z,18.10
2022-08-08T23:19:09.379Z,18.00
2022-08-08T23:21:38.054Z,17.90
2022-08-08T23:24:06.327Z,17.80
2022-08-08T23:26:34.205Z,17.60
2022-08-08T23:29:01.654Z,17.50
2022-08-08T23:31:28.375Z,17.40
2022-08-08T23:34:16.930Z,17.30
2022-08-08T23:36:42.392Z,17.10
2022-08-08T23:39:09.323Z,17.00
2022-08-08T23:41:41.649Z,16.90
2022-08-08T23:44:13.053Z,16.80
2022-08-08T23:49:07.545Z,16.70
2022-08-08T23:49:26.628Z,16.60
2022-08-08T23:52:05.544Z,16.50
2022-08-08T23:54:43.229Z,16.50
2022-08-08T23:57:26.519Z,16.50
